createdAt,value
2019-02-11T00:02:52.386Z,0.30
2019-02-11T00:06:55.837Z,0.30
2019-02-11T00:11:00.261Z,0.20
2019-02-11T00:15:03.701Z,0.30
2019-02-11T00:19:07.167Z,0.27
2019-02-11T00:23:10.640Z,0.17
2019-02-11T00:27:14.098Z,0.20
2019-02-11T00:31:17.656Z,0.20
2019-02-11T00:35:21.168Z,0.30
2019-02-11T00:39:24.622Z,0.27
2019-02-11T00:43:28.075Z,0.20
2019-02-11T00:47:31.528Z,0.10
2019-02-11T00:51:34.978Z,0.20
2019-02-11T00:55:38.423Z,0.20
2019-02-11T00:59:41.880Z,0.20
2019-02-11T01:03:45.330Z,0.20
2019-02-11T01:07:48.798Z,0.10
2019-02-11T01:11:52.254Z,0.10
2019-02-11T01:15:55.694Z,0.20
2019-02-11T01:19:59.146Z,0.17
2019-02-11T01:24:02.606Z,0.20
2019-02-11T01:28:06.060Z,0.27
2019-02-11T01:32:09.519Z,0.20
2019-02-11T01:36:12.963Z,0.20
2019-02-11T01:40:16.441Z,0.20
2019-02-11T01:44:19.890Z,0.23
2019-02-11T01:48:23.344Z,0.13
2019-02-11T01:52:26.788Z,0.20
2019-02-11T01:56:30.239Z,0.10
2019-02-11T02:00:33.700Z,0.10
2019-02-11T02:04:37.147Z,0.10
2019-02-11T02:08:40.599Z,0.20
2019-02-11T02:12:44.039Z,0.20
2019-02-11T02:16:47.507Z,0.10
2019-02-11T02:20:50.960Z,0.10
2019-02-11T02:24:54.400Z,0.20
2019-02-11T02:28:57.856Z,0.20
2019-02-11T02:33:01.302Z,0.13
2019-02-11T02:37:04.754Z,0.30
2019-02-11T02:41:08.216Z,0.23
2019-02-11T02:45:11.664Z,0.10
2019-02-11T02:49:15.118Z,0.20
2019-02-11T02:53:18.554Z,0.20
2019-02-11T02:57:22.015Z,0.23
2019-02-11T03:01:25.468Z,0.20
2019-02-11T03:05:28.918Z,0.20
2019-02-11T03:09:32.370Z,0.10
2019-02-11T03:13:35.818Z,0.20
2019-02-11T03:17:39.270Z,0.10
2019-02-11T03:21:42.723Z,0.20
2019-02-11T03:25:46.181Z,0.40
2019-02-11T03:29:49.643Z,0.20
2019-02-11T03:33:53.099Z,0.20
2019-02-11T03:37:56.556Z,0.20
2019-02-11T03:42:00.012Z,0.63
2019-02-11T03:46:03.467Z,1.10
2019-02-11T03:50:06.936Z,0.80
2019-02-11T03:54:11.425Z,0.33
2019-02-11T03:58:14.882Z,0.30
2019-02-11T04:02:18.353Z,0.30
2019-02-11T04:06:21.790Z,0.40
2019-02-11T04:10:25.258Z,0.33
2019-02-11T04:14:28.695Z,0.50
2019-02-11T04:18:32.167Z,0.30
2019-02-11T04:22:35.631Z,0.30
2019-02-11T04:26:39.078Z,0.50
2019-02-11T04:30:42.531Z,0.40
2019-02-11T04:34:45.983Z,0.40
2019-02-11T04:38:49.451Z,0.77
2019-02-11T04:42:52.901Z,0.77
2019-02-11T04:46:56.356Z,0.50
2019-02-11T04:50:59.800Z,0.60
2019-02-11T04:55:03.259Z,0.90
2019-02-11T04:59:06.714Z,1.03
2019-02-11T05:03:10.166Z,0.70
2019-02-11T05:07:14.591Z,0.80
2019-02-11T05:11:18.032Z,0.93
2019-02-11T05:15:21.500Z,1.00
2019-02-11T05:19:24.958Z,0.90
2019-02-11T05:23:28.417Z,0.97
2019-02-11T05:27:31.874Z,1.03
2019-02-11T05:31:36.285Z,1.20
2019-02-11T05:35:39.726Z,1.03
2019-02-11T05:39:43.177Z,1.10
2019-02-11T05:43:46.626Z,1.40
2019-02-11T05:47:50.091Z,1.13
2019-02-11T05:51:53.615Z,1.80
2019-02-11T05:55:57.073Z,1.40
2019-02-11T06:00:00.697Z,1.63
2019-02-11T06:04:05.431Z,1.80
2019-02-11T06:08:08.881Z,1.57
2019-02-11T06:12:12.328Z,1.80
2019-02-11T06:16:15.777Z,1.77
2019-02-11T06:20:19.232Z,1.93
2019-02-11T06:24:22.692Z,2.00
2019-02-11T06:28:26.164Z,2.40
2019-02-11T06:32:29.614Z,2.43
2019-02-11T06:36:33.071Z,3.53
2019-02-11T06:40:36.524Z,4.17
2019-02-11T06:44:39.993Z,2.60
2019-02-11T06:48:43.427Z,3.07
2019-02-11T06:52:46.880Z,3.00
2019-02-11T06:56:50.330Z,3.13
2019-02-11T07:00:53.781Z,3.00
2019-02-11T07:04:57.247Z,2.97
2019-02-11T07:09:00.696Z,3.67
2019-02-11T07:13:04.157Z,3.10
2019-02-11T07:17:08.579Z,3.33
2019-02-11T07:21:12.029Z,3.73
2019-02-11T07:25:16.661Z,3.97
2019-02-11T07:29:20.223Z,3.60
2019-02-11T07:33:23.707Z,3.80
2019-02-11T07:37:27.169Z,3.23
2019-02-11T07:41:32.273Z,3.53
2019-02-11T07:45:52.702Z,3.60
2019-02-11T07:49:56.157Z,3.30
2019-02-11T07:53:59.606Z,3.77
2019-02-11T07:58:03.071Z,3.17
2019-02-11T08:02:06.530Z,3.07
2019-02-11T08:06:09.996Z,3.50
2019-02-11T08:10:13.442Z,2.77
2019-02-11T08:14:16.894Z,3.33
2019-02-11T08:18:20.354Z,2.83
2019-02-11T08:22:23.801Z,3.00
2019-02-11T08:26:27.251Z,2.50
2019-02-11T08:30:30.692Z,2.57
2019-02-11T08:34:34.150Z,3.00
2019-02-11T08:38:37.878Z,3.37
2019-02-11T08:42:41.360Z,3.27
2019-02-11T08:46:44.811Z,3.03
2019-02-11T08:50:48.274Z,2.80
2019-02-11T08:54:51.738Z,3.70
2019-02-11T08:58:55.188Z,2.77
2019-02-11T09:02:58.647Z,3.03
2019-02-11T09:07:02.113Z,3.57
2019-02-11T09:11:05.567Z,3.50
2019-02-11T09:15:09.013Z,4.77
2019-02-11T09:19:13.538Z,3.00
2019-02-11T09:23:16.995Z,3.13
2019-02-11T09:27:20.454Z,3.27
2019-02-11T09:31:23.917Z,3.10
2019-02-11T09:35:27.382Z,3.40
2019-02-11T09:39:30.843Z,2.67
2019-02-11T09:43:34.297Z,4.07
2019-02-11T09:47:37.755Z,4.50
2019-02-11T09:51:42.197Z,3.70
2019-02-11T09:55:45.638Z,3.53
2019-02-11T09:59:49.093Z,3.47
2019-02-11T10:03:52.550Z,3.43
2019-02-11T10:07:56.013Z,3.00
2019-02-11T10:11:59.467Z,3.47
2019-02-11T10:16:02.906Z,3.40
2019-02-11T10:20:06.359Z,4.50
2019-02-11T10:24:09.815Z,4.03
2019-02-11T10:28:13.278Z,3.77
2019-02-11T10:32:16.735Z,4.03
2019-02-11T10:36:20.180Z,4.27
2019-02-11T10:40:23.634Z,2.67
2019-02-11T10:44:27.093Z,3.23
2019-02-11T10:48:30.557Z,2.93
2019-02-11T10:52:34.002Z,3.07
2019-02-11T10:56:37.480Z,2.90
2019-02-11T11:00:41.897Z,3.13
2019-02-11T11:04:45.361Z,3.17
2019-02-11T11:08:48.809Z,3.17
2019-02-11T11:12:52.263Z,3.73
2019-02-11T11:16:55.713Z,2.57
2019-02-11T11:20:59.167Z,2.70
2019-02-11T11:25:02.634Z,2.50
2019-02-11T11:29:06.195Z,5.70
2019-02-11T11:33:09.625Z,3.07
2019-02-11T11:37:13.411Z,6.30
2019-02-11T11:41:16.915Z,3.27
2019-02-11T11:45:20.377Z,2.70
2019-02-11T11:49:23.832Z,2.07
2019-02-11T11:53:27.281Z,1.90
2019-02-11T11:57:30.741Z,2.27
2019-02-11T12:01:34.209Z,1.90
2019-02-11T12:05:37.652Z,2.80
2019-02-11T12:09:43.789Z,1.53
2019-02-11T12:13:46.254Z,2.30
2019-02-11T12:17:49.716Z,1.90
2019-02-11T12:21:53.173Z,2.37
2019-02-11T12:25:56.652Z,1.90
2019-02-11T12:30:00.392Z,2.37
2019-02-11T12:34:03.916Z,1.90
2019-02-11T12:38:07.413Z,2.57
2019-02-11T12:42:10.834Z,1.60
2019-02-11T12:46:14.302Z,1.43
2019-02-11T12:50:17.810Z,1.87
2019-02-11T12:54:21.284Z,3.27
2019-02-11T12:58:24.748Z,2.10
2019-02-11T13:02:28.208Z,2.07
2019-02-11T13:06:31.666Z,1.70
2019-02-11T13:10:35.133Z,1.70
2019-02-11T13:14:38.584Z,2.13
2019-02-11T13:18:42.103Z,1.93
2019-02-11T13:22:45.580Z,2.03
2019-02-11T13:26:49.024Z,2.20
2019-02-11T13:30:52.479Z,2.00
2019-02-11T13:34:55.922Z,1.87
2019-02-11T13:38:59.382Z,2.43
2019-02-11T13:43:03.107Z,1.43
2019-02-11T13:47:06.593Z,2.80
2019-02-11T13:51:10.036Z,4.90
2019-02-11T13:55:13.498Z,4.80
2019-02-11T13:59:16.953Z,4.13
2019-02-11T14:03:20.625Z,2.40
2019-02-11T14:07:24.144Z,3.57
2019-02-11T14:11:27.592Z,2.30
2019-02-11T14:15:31.052Z,3.63
2019-02-11T14:19:34.495Z,1.90
2019-02-11T14:23:37.954Z,1.80
2019-02-11T14:27:41.407Z,2.10
2019-02-11T14:31:44.847Z,2.23
2019-02-11T14:35:48.439Z,2.40
2019-02-11T14:39:51.996Z,2.43
2019-02-11T14:43:55.510Z,2.07
2019-02-11T14:47:59.052Z,2.50
2019-02-11T14:52:02.558Z,2.13
2019-02-11T14:56:06.079Z,2.10
2019-02-11T15:00:11.172Z,2.80
2019-02-11T15:04:14.620Z,2.50
2019-02-11T15:08:18.086Z,17.27
2019-02-11T15:12:21.539Z,2.80
2019-02-11T15:16:25.010Z,3.50
2019-02-11T15:20:28.467Z,3.23
2019-02-11T15:24:31.930Z,2.67
2019-02-11T15:28:35.379Z,2.13
2019-02-11T15:32:38.823Z,3.43
2019-02-11T15:36:42.282Z,2.50
2019-02-11T15:40:45.730Z,2.37
2019-02-11T15:44:49.182Z,1.93
2019-02-11T15:48:52.649Z,2.00
2019-02-11T15:52:56.100Z,2.10
2019-02-11T15:56:59.551Z,1.70
2019-02-11T16:01:03.003Z,1.63
2019-02-11T16:05:06.458Z,4.80
2019-02-11T16:09:09.914Z,2.50
2019-02-11T16:13:13.356Z,2.00
2019-02-11T16:17:16.826Z,5.47
2019-02-11T16:21:20.275Z,3.17
2019-02-11T16:25:23.725Z,2.43
2019-02-11T16:29:27.180Z,3.27
2019-02-11T16:33:30.638Z,3.30
2019-02-11T16:37:34.091Z,3.50
2019-02-11T16:41:37.553Z,3.23
2019-02-11T16:45:41.993Z,3.10
2019-02-11T16:49:45.437Z,5.90
2019-02-11T16:53:48.890Z,3.40
2019-02-11T16:57:52.350Z,2.67
2019-02-11T17:01:55.808Z,2.47
2019-02-11T17:05:59.257Z,3.60
2019-02-11T17:10:02.714Z,2.20
2019-02-11T17:14:06.161Z,2.00
2019-02-11T17:18:09.614Z,3.37
2019-02-11T17:22:13.095Z,2.20
2019-02-11T17:26:16.556Z,2.43
2019-02-11T17:30:20.006Z,2.40
2019-02-11T17:34:23.455Z,2.20
2019-02-11T17:38:26.909Z,2.67
2019-02-11T17:42:30.373Z,3.00
2019-02-11T17:46:33.833Z,3.33
2019-02-11T17:50:37.289Z,4.03
2019-02-11T17:54:40.735Z,4.80
2019-02-11T17:58:45.160Z,3.10
2019-02-11T18:02:49.584Z,3.50
2019-02-11T18:06:53.031Z,4.27
2019-02-11T18:10:56.490Z,3.70
2019-02-11T18:14:59.940Z,3.40
2019-02-11T18:19:03.404Z,4.00
2019-02-11T18:23:06.859Z,4.43
2019-02-11T18:27:10.330Z,4.53
2019-02-11T18:31:13.788Z,4.80
2019-02-11T18:35:17.239Z,4.27
2019-02-11T18:39:20.697Z,4.13
2019-02-11T18:43:24.157Z,5.37
2019-02-11T18:47:27.620Z,4.97
2019-02-11T18:51:31.058Z,5.57
2019-02-11T18:55:34.510Z,5.13
2019-02-11T18:59:37.966Z,5.20
2019-02-11T19:03:41.430Z,5.37
2019-02-11T19:07:44.896Z,7.30
2019-02-11T19:11:48.357Z,5.30
2019-02-11T19:15:51.811Z,5.37
2019-02-11T19:19:55.275Z,5.37
2019-02-11T19:23:58.738Z,5.23
2019-02-11T19:28:02.199Z,7.47
2019-02-11T19:32:05.639Z,6.07
2019-02-11T19:36:09.102Z,12.23
2019-02-11T19:40:12.565Z,6.10
2019-02-11T19:44:16.020Z,5.87
2019-02-11T19:48:19.484Z,5.67
2019-02-11T19:52:22.933Z,6.57
2019-02-11T19:56:26.393Z,6.43
2019-02-11T20:00:31.765Z,6.83
2019-02-11T20:04:35.012Z,7.20
2019-02-11T20:08:38.483Z,6.17
2019-02-11T20:12:41.955Z,7.27
2019-02-11T20:16:45.420Z,7.80
2019-02-11T20:20:48.885Z,10.63
2019-02-11T20:24:52.347Z,7.23
2019-02-11T20:28:55.815Z,6.50
2019-02-11T20:32:59.257Z,6.40
2019-02-11T20:37:02.715Z,7.30
2019-02-11T20:41:06.173Z,8.10
2019-02-11T20:45:09.636Z,5.33
2019-02-11T20:49:13.102Z,5.70
2019-02-11T20:53:16.553Z,6.97
2019-02-11T20:57:20.019Z,6.23
2019-02-11T21:01:24.292Z,6.03
2019-02-11T21:05:27.752Z,6.40
2019-02-11T21:09:31.231Z,5.60
2019-02-11T21:13:34.680Z,6.70
2019-02-11T21:17:38.140Z,5.67
2019-02-11T21:21:41.596Z,4.70
2019-02-11T21:25:45.058Z,4.50
2019-02-11T21:29:48.528Z,5.23
2019-02-11T21:33:51.976Z,5.50
2019-02-11T21:37:55.453Z,4.70
2019-02-11T21:41:58.891Z,4.70
2019-02-11T21:46:02.354Z,4.97
2019-02-11T21:50:06.884Z,5.63
2019-02-11T21:54:10.324Z,5.83
2019-02-11T21:58:13.785Z,6.20
2019-02-11T22:02:17.249Z,5.13
2019-02-11T22:06:20.707Z,6.00
2019-02-11T22:10:24.169Z,5.63
2019-02-11T22:14:27.626Z,6.03
2019-02-11T22:18:31.077Z,4.77
2019-02-11T22:22:34.542Z,5.10
2019-02-11T22:26:37.991Z,4.57
2019-02-11T22:30:41.472Z,4.23
2019-02-11T22:34:44.916Z,5.50
2019-02-11T22:38:48.375Z,4.33
2019-02-11T22:42:51.831Z,4.40
2019-02-11T22:46:55.287Z,4.57
2019-02-11T22:50:58.749Z,4.77
2019-02-11T22:55:02.210Z,4.77
2019-02-11T22:59:05.682Z,5.00
2019-02-11T23:03:09.146Z,5.33
2019-02-11T23:07:12.599Z,5.23
2019-02-11T23:11:16.048Z,4.23
2019-02-11T23:15:19.509Z,3.83
2019-02-11T23:19:22.977Z,4.43
2019-02-11T23:23:26.433Z,3.80
2019-02-11T23:27:29.912Z,4.20
2019-02-11T23:31:33.355Z,5.10
2019-02-11T23:35:36.817Z,4.03
2019-02-11T23:39:40.276Z,3.83
2019-02-11T23:43:43.739Z,4.50
2019-02-11T23:47:47.208Z,3.70
2019-02-11T23:51:50.656Z,3.20
2019-02-11T23:55:54.118Z,3.90
2019-02-11T23:59:57.575Z,4.60
